Time;durP1;ratioP1;P1;durP2;ratioP2;P2;SDS_P1;SDS_P2;PMS_P1;PMS_P2;Temp;Humidity;BMP_temperature;BMP_pressure;BME280_temperature;BME280_humidity;BME280_pressure;Samples;Min_cycle;Max_cycle;Signal;HPM_P1;HPM_P2
2021/05/08 00:02:27;;;;;;;7.87;7.17;;;2.90;99.90;;;3.53;80.01;98270.31;5202483;28;20667;-58
2021/05/08 00:05:01;;;;;;;7.93;7.43;;;2.80;99.90;;;3.55;80.27;98268.81;5206662;28;20215;-58
2021/05/08 00:07:33;;;;;;;7.33;6.83;;;2.90;99.90;;;3.56;80.71;98268.06;5201503;28;20300;-59
2021/05/08 00:10:08;;;;;;;7.53;6.93;;;2.90;99.90;;;3.51;80.40;98266.75;5204894;28;20320;-61
2021/05/08 00:12:41;;;;;;;7.80;7.20;;;2.90;99.90;;;3.49;80.54;98270.78;5196059;28;20200;-59
2021/05/08 00:15:15;;;;;;;8.30;7.50;;;2.80;99.90;;;3.43;80.15;98272.72;5204447;28;20198;-58
2021/05/08 00:17:47;;;;;;;8.57;7.87;;;2.70;99.90;;;3.45;81.09;98276.28;5195813;28;20731;-60
2021/05/08 00:20:21;;;;;;;7.73;7.23;;;2.80;99.90;;;3.39;80.68;98275.75;5202888;28;20229;-60
2021/05/08 00:22:53;;;;;;;8.00;7.40;;;2.70;99.90;;;3.44;80.34;98271.13;5204775;28;20578;-59
2021/05/08 00:25:25;;;;;;;8.63;7.93;;;2.80;99.90;;;3.38;80.89;98273.97;5203210;28;20197;-58
2021/05/08 00:27:57;;;;;;;8.80;8.10;;;2.70;99.90;;;3.39;80.25;98270.69;5197823;28;20635;-58
2021/05/08 00:30:29;;;;;;;8.33;7.63;;;2.70;99.90;;;3.42;80.12;98267.56;5202947;28;20777;-59
2021/05/08 00:33:01;;;;;;;7.50;6.90;;;2.70;99.90;;;3.32;80.57;98269.25;5205477;28;20227;-57
2021/05/08 00:35:34;;;;;;;7.47;6.87;;;2.60;99.90;;;3.28;80.83;98271.34;5193776;28;20240;-59
2021/05/08 00:38:07;;;;;;;7.00;6.50;;;2.60;99.90;;;3.28;81.24;98268.81;5205773;28;20216;-59
2021/05/08 00:40:39;;;;;;;7.27;6.63;;;2.60;99.90;;;3.24;80.74;98264.25;5192515;28;20289;-59
2021/05/08 00:43:11;;;;;;;8.13;7.30;;;2.50;99.90;;;3.24;80.73;98270.19;5202206;28;20312;-58
2021/05/08 00:45:44;;;;;;;7.80;7.20;;;2.50;99.90;;;3.30;80.98;98272.38;5200832;28;20286;-58
2021/05/08 00:48:16;;;;;;;8.47;7.87;;;2.60;99.90;;;3.25;80.37;98271.06;5187157;28;20315;-60
2021/05/08 00:50:50;;;;;;;7.83;7.33;;;2.50;99.90;;;3.21;79.79;98263.97;5194546;28;20228;-60
2021/05/08 00:53:22;;;;;;;7.10;6.60;;;2.50;99.90;;;3.14;79.56;98270.06;5202671;28;20309;-60
2021/05/08 00:55:54;;;;;;;7.70;7.10;;;2.40;99.90;;;3.04;80.39;98275.94;5204530;28;20202;-60
2021/05/08 00:58:26;;;;;;;8.50;7.80;;;2.30;99.90;;;2.88;79.82;98277.78;5196087;28;20218;-60
2021/05/08 01:00:58;;;;;;;7.83;7.20;;;2.20;99.90;;;2.85;80.11;98273.31;5203873;28;20227;-60
2021/05/08 01:03:30;;;;;;;8.60;7.87;;;2.20;99.90;;;2.86;80.54;98269.16;5205669;28;20202;-59
2021/05/08 01:06:04;;;;;;;9.03;7.80;;;2.20;99.90;;;2.85;80.63;98278.38;5197538;28;20206;-60
2021/05/08 01:08:37;;;;;;;8.13;7.43;;;2.20;99.90;;;2.75;81.23;98275.75;5203860;28;20240;-60
2021/05/08 01:11:10;;;;;;;8.07;7.47;;;2.10;99.90;;;2.70;80.62;98275.31;5196660;28;20588;-60
2021/05/08 01:13:42;;;;;;;8.33;7.73;;;2.00;99.90;;;2.67;81.22;98280.06;5190998;28;20285;-60
2021/05/08 01:16:14;;;;;;;9.30;8.43;;;2.00;99.90;;;2.68;81.96;98279.31;5185073;28;20293;-60
2021/05/08 01:18:51;;;;;;;9.13;8.43;;;2.10;99.90;;;2.76;82.37;98286.72;5187396;28;20308;-60
2021/05/08 01:21:24;;;;;;;8.27;7.67;;;2.10;99.90;;;2.78;81.66;98286.13;5201023;28;20614;-60
2021/05/08 01:23:56;;;;;;;9.10;8.40;;;2.10;99.90;;;2.64;81.75;98287.34;5203561;28;20232;-60
2021/05/08 01:26:28;;;;;;;8.30;7.50;;;2.00;99.90;;;2.54;81.83;98272.06;5201305;28;20575;-59
2021/05/08 01:29:01;;;;;;;7.97;7.37;;;1.90;99.90;;;2.64;81.96;98279.78;5201905;28;20227;-60
2021/05/08 01:31:33;;;;;;;8.63;8.00;;;2.00;99.90;;;2.66;82.33;98278.31;5202940;28;20299;-59
2021/05/08 01:34:05;;;;;;;8.47;7.67;;;2.10;99.90;;;2.69;82.85;98272.66;5189400;28;20198;-60
2021/05/08 01:36:38;;;;;;;8.73;8.13;;;2.10;99.90;;;2.76;82.08;98281.69;5186869;28;20234;-60
2021/05/08 01:39:10;;;;;;;8.33;7.70;;;2.10;99.90;;;2.77;82.47;98279.28;5198484;28;20644;-60
2021/05/08 01:41:44;;;;;;;8.40;7.70;;;2.20;99.90;;;2.70;81.59;98277.81;5203276;28;20207;-59
2021/05/08 01:44:16;;;;;;;8.87;8.00;;;2.10;99.90;;;2.67;81.45;98272.50;5202958;28;20223;-58
2021/05/08 01:46:48;;;;;;;9.07;8.47;;;2.10;99.90;;;2.75;81.72;98278.28;5203710;28;20625;-59
2021/05/08 01:49:21;;;;;;;8.90;8.20;;;2.10;99.90;;;2.73;81.94;98273.81;5203617;28;20230;-59
2021/05/08 01:51:53;;;;;;;9.37;8.50;;;2.10;99.90;;;2.65;81.84;98273.97;5199561;28;20232;-58
2021/05/08 01:54:26;;;;;;;8.60;8.00;;;2.10;99.90;;;2.77;81.85;98273.34;5191346;28;20235;-58
2021/05/08 01:56:58;;;;;;;9.10;8.33;;;2.10;99.90;;;2.76;80.94;98264.00;5199455;28;20199;-57
2021/05/08 01:59:30;;;;;;;8.80;8.10;;;2.10;99.90;;;2.80;81.29;98266.06;5194460;28;20225;-58
2021/05/08 02:02:02;;;;;;;8.50;7.90;;;2.10;99.90;;;2.68;81.41;98264.16;5196270;28;20274;-59
2021/05/08 02:04:34;;;;;;;9.23;8.43;;;2.10;99.90;;;2.75;81.60;98260.59;5190361;28;20216;-58
2021/05/08 02:07:07;;;;;;;9.20;8.50;;;2.20;99.90;;;2.78;81.47;98257.47;5202486;28;20245;-60
2021/05/08 02:09:39;;;;;;;8.50;7.90;;;2.20;99.90;;;2.83;81.62;98251.19;5200701;28;20263;-58
2021/05/08 02:12:11;;;;;;;7.80;7.30;;;2.20;99.90;;;2.83;81.02;98248.69;5184050;28;20210;-58
2021/05/08 02:14:43;;;;;;;8.10;7.50;;;2.20;99.90;;;2.78;81.75;98252.44;5202135;28;20843;-59
2021/05/08 02:17:15;;;;;;;8.27;7.67;;;2.10;99.90;;;2.78;81.39;98242.34;5194697;28;20211;-58
2021/05/08 02:19:47;;;;;;;8.13;7.53;;;2.10;99.90;;;2.80;81.69;98239.19;5202163;28;20218;-57
2021/05/08 02:22:21;;;;;;;7.87;7.27;;;2.20;99.90;;;2.81;80.88;98237.56;5203968;28;20298;-60
2021/05/08 02:24:54;;;;;;;7.97;7.37;;;2.20;99.90;;;2.81;81.75;98235.06;5202250;28;20195;-60
2021/05/08 02:27:26;;;;;;;7.70;7.20;;;2.10;99.90;;;2.81;81.69;98235.94;5197388;28;20234;-58
2021/05/08 02:29:58;;;;;;;8.30;7.60;;;2.20;99.90;;;2.82;81.23;98237.69;5200308;28;20317;-58
2021/05/08 02:32:30;;;;;;;7.77;7.17;;;2.20;99.90;;;2.73;81.83;98220.84;5202920;28;20233;-60
2021/05/08 02:35:05;;;;;;;8.70;8.00;;;2.00;99.90;;;2.77;81.53;98232.97;5204276;28;20236;-60
2021/05/08 02:37:38;;;;;;;8.63;7.93;;;2.10;99.90;;;2.83;80.76;98223.44;5201207;28;20204;-61
2021/05/08 02:40:14;;;;;;;7.80;7.30;;;2.10;99.90;;;2.69;81.67;98225.59;5204540;28;20319;-59
2021/05/08 02:42:47;;;;;;;7.97;7.37;;;2.00;99.90;;;2.66;80.73;98220.25;5203901;28;20256;-60
2021/05/08 02:45:20;;;;;;;8.10;7.50;;;2.00;99.90;;;2.69;80.49;98224.72;5196692;28;20209;-58
2021/05/08 02:47:52;;;;;;;7.80;7.27;;;2.00;99.90;;;2.67;81.48;98221.16;5207631;28;20241;-58
2021/05/08 02:50:24;;;;;;;8.03;7.33;;;2.00;99.90;;;2.62;80.73;98224.88;5195535;28;20230;-60
2021/05/08 02:52:57;;;;;;;8.30;7.60;;;1.90;99.90;;;2.56;80.80;98217.63;5205967;28;20199;-59
2021/05/08 02:55:29;;;;;;;8.73;8.10;;;1.90;99.90;;;2.51;81.37;98216.28;5201882;28;20204;-57
2021/05/08 02:58:02;;;;;;;8.20;7.50;;;1.80;99.90;;;2.46;82.39;98220.00;5194596;28;20286;-60
2021/05/08 03:00:34;;;;;;;8.60;7.80;;;1.80;99.90;;;2.52;82.11;98215.56;5194389;28;20210;-58
2021/05/08 03:03:06;;;;;;;8.93;8.23;;;1.80;99.90;;;2.49;82.11;98212.75;5205841;28;20566;-58
2021/05/08 03:05:38;;;;;;;8.80;8.13;;;1.80;99.90;;;2.52;81.82;98209.59;5206917;28;20202;-59
2021/05/08 03:08:11;;;;;;;8.70;8.10;;;1.90;99.90;;;2.55;82.23;98220.91;5203572;28;20232;-59
2021/05/08 03:10:43;;;;;;;9.17;8.37;;;1.90;99.90;;;2.66;81.78;98214.31;5205681;28;20311;-59
2021/05/08 03:13:15;;;;;;;9.23;8.53;;;2.00;99.90;;;2.61;82.87;98216.41;5204419;28;20296;-59
2021/05/08 03:15:47;;;;;;;9.40;8.60;;;2.00;99.90;;;2.61;82.31;98202.91;5206300;28;20292;-60
2021/05/08 03:18:20;;;;;;;8.53;7.83;;;2.00;99.90;;;2.62;83.19;98208.09;5197465;28;20732;-59
2021/05/08 03:20:52;;;;;;;8.93;8.27;;;2.00;99.90;;;2.69;83.33;98215.50;5205411;28;20209;-59
2021/05/08 03:23:26;;;;;;;8.90;8.20;;;2.10;99.90;;;2.70;82.95;98212.22;5196112;28;20744;-58
2021/05/08 03:25:58;;;;;;;8.50;7.80;;;2.10;99.90;;;2.60;81.64;98212.09;5206386;28;20202;-58
2021/05/08 03:28:30;;;;;;;9.37;8.57;;;2.00;99.90;;;2.59;81.88;98212.84;5202442;28;20237;-57
2021/05/08 03:31:02;;;;;;;9.20;8.37;;;2.00;99.90;;;2.63;81.96;98212.41;5205007;28;20256;-58
2021/05/08 03:33:34;;;;;;;9.47;8.67;;;2.00;99.90;;;2.62;82.57;98213.13;5193340;28;20238;-60
2021/05/08 03:36:07;;;;;;;9.47;8.67;;;2.00;99.90;;;2.54;82.25;98208.13;5187942;28;20208;-59
2021/05/08 03:38:40;;;;;;;9.73;8.93;;;1.90;99.90;;;2.55;81.76;98207.38;5200944;28;20373;-60
2021/05/08 03:41:12;;;;;;;9.20;8.40;;;1.90;99.90;;;2.52;81.98;98209.59;5200421;28;20284;-58
2021/05/08 03:43:44;;;;;;;7.90;7.37;;;1.90;99.90;;;2.57;82.40;98208.41;5190323;28;20192;-58
2021/05/08 03:46:16;;;;;;;8.40;7.70;;;1.90;99.90;;;2.57;82.76;98206.78;5186311;28;20204;-57
2021/05/08 03:48:48;;;;;;;8.50;7.80;;;1.90;99.90;;;2.56;82.80;98197.44;5200218;28;20584;-59
2021/05/08 03:51:24;;;;;;;8.17;7.57;;;2.00;99.90;;;2.65;82.83;98210.00;5203687;28;20206;-58
2021/05/08 03:53:58;;;;;;;8.43;7.90;;;2.00;99.90;;;2.60;82.09;98202.00;5205859;28;20739;-58
2021/05/08 03:56:31;;;;;;;8.53;7.93;;;1.90;99.90;;;2.61;82.03;98195.34;5205676;28;20201;-57
2021/05/08 03:59:03;;;;;;;8.07;7.47;;;1.90;99.90;;;2.64;82.57;98196.50;5201891;28;20298;-58
2021/05/08 04:01:36;;;;;;;7.73;7.13;;;2.00;99.90;;;2.64;82.17;98195.63;5201145;28;20329;-58
2021/05/08 04:04:08;;;;;;;7.27;6.77;;;2.00;99.90;;;2.60;81.64;98194.44;5200844;28;20205;-60
2021/05/08 04:06:40;;;;;;;7.07;6.60;;;2.00;99.90;;;2.56;82.19;98201.59;5198294;28;20202;-60
2021/05/08 04:09:13;;;;;;;7.87;7.37;;;1.90;99.90;;;2.56;82.11;98194.03;5199662;28;20676;-58
2021/05/08 04:11:46;;;;;;;7.33;6.87;;;1.90;99.90;;;2.51;81.25;98205.31;5188218;28;20205;-60
2021/05/08 04:14:18;;;;;;;8.50;7.90;;;1.80;99.90;;;2.54;81.55;98203.06;5198072;28;20553;-60
2021/05/08 04:16:50;;;;;;;8.00;7.40;;;1.80;99.90;;;2.56;81.84;98206.66;5202924;28;20206;-59
2021/05/08 04:19:22;;;;;;;7.90;7.30;;;1.90;99.90;;;2.59;81.66;98197.72;5193696;28;20224;-59
2021/05/08 04:21:54;;;;;;;7.93;7.40;;;1.90;99.90;;;2.56;81.17;98201.59;5186229;28;20197;-59
2021/05/08 04:24:27;;;;;;;8.80;8.10;;;1.80;99.90;;;2.57;81.92;98198.31;5206186;28;20572;-59
2021/05/08 04:26:59;;;;;;;8.13;7.53;;;1.90;99.90;;;2.67;82.02;98204.38;5199436;28;20198;-59
2021/05/08 04:29:31;;;;;;;8.07;7.43;;;2.00;99.90;;;2.80;81.44;98202.97;5193008;28;20229;-60
2021/05/08 04:32:04;;;;;;;8.33;7.73;;;2.10;99.90;;;2.88;81.48;98202.91;5204387;28;20204;-60
2021/05/08 04:34:37;;;;;;;7.77;7.17;;;2.20;99.90;;;2.99;81.49;98203.91;5205614;28;20217;-59
2021/05/08 04:37:09;;;;;;;7.40;6.90;;;2.30;99.90;;;3.03;81.14;98202.56;5196752;28;20209;-59
2021/05/08 04:39:42;;;;;;;7.67;7.17;;;2.30;99.90;;;3.13;80.54;98198.47;5203515;28;20215;-60
2021/05/08 04:42:14;;;;;;;7.70;7.07;;;2.40;99.90;;;3.23;80.93;98196.78;5204206;28;20295;-59
2021/05/08 04:44:46;;;;;;;7.30;6.80;;;2.50;99.90;;;3.31;80.87;98203.41;5206278;28;20233;-59
2021/05/08 04:47:20;;;;;;;7.40;6.80;;;2.60;99.90;;;3.39;79.79;98199.94;5204629;28;20659;-60
2021/05/08 04:49:57;;;;;;;7.60;7.10;;;2.70;99.90;;;3.42;79.82;98195.16;5204920;28;20578;-59
2021/05/08 04:52:30;;;;;;;7.93;7.33;;;2.70;99.90;;;3.49;80.13;98196.59;5185431;28;20297;-59
2021/05/08 04:55:03;;;;;;;7.43;6.90;;;2.70;99.90;;;3.51;79.20;98201.03;5202608;28;20198;-60
2021/05/08 04:57:35;;;;;;;8.23;7.63;;;2.80;99.90;;;3.42;78.90;98195.16;5192512;28;20516;-58
2021/05/08 05:00:11;;;;;;;8.60;7.90;;;2.60;99.90;;;3.43;78.83;98196.94;5202692;28;20596;-60
2021/05/08 05:02:44;;;;;;;7.57;7.00;;;2.60;99.90;;;3.48;78.51;98189.78;5188889;28;20288;-59
2021/05/08 05:05:16;;;;;;;7.10;6.50;;;2.70;99.90;;;3.57;79.14;98196.53;5196090;28;20680;-60
2021/05/08 05:07:48;;;;;;;8.07;7.47;;;2.80;99.90;;;3.71;79.10;98189.31;5196903;28;20290;-57
2021/05/08 05:10:21;;;;;;;8.47;7.83;;;3.00;99.90;;;3.84;78.70;98198.09;5202247;28;20562;-60
2021/05/08 05:12:53;;;;;;;8.30;7.60;;;3.10;99.90;;;4.05;79.11;98195.69;5203927;28;20207;-60
2021/05/08 05:15:26;;;;;;;7.67;7.10;;;3.30;99.90;;;4.47;78.69;98190.91;5197602;28;20300;-60
2021/05/08 05:17:58;;;;;;;7.40;6.90;;;3.60;99.90;;;4.96;76.79;98189.13;5193103;28;20289;-60
2021/05/08 05:20:30;;;;;;;7.87;7.27;;;4.00;99.90;;;5.43;72.55;98175.31;5195087;28;20571;-60
2021/05/08 05:23:02;;;;;;;6.93;6.43;;;4.40;99.90;;;5.98;71.20;98178.00;5195552;28;20286;-59
2021/05/08 05:25:36;;;;;;;7.30;6.70;;;4.70;99.90;;;6.47;68.57;98174.28;5199183;28;20264;-60
2021/05/08 05:28:23;;;;;;;7.53;6.97;;;5.10;99.90;;;7.07;66.29;98183.94;5204548;28;20287;-61
2021/05/08 05:30:56;;;;;;;6.60;6.20;;;5.60;99.90;;;7.44;65.63;98178.31;5196960;28;20570;-61
2021/05/08 05:33:28;;;;;;;7.20;6.70;;;5.90;99.90;;;7.74;63.55;98183.88;5203077;28;20226;-60
2021/05/08 05:36:01;;;;;;;6.57;6.07;;;6.20;99.90;;;7.87;63.10;98181.44;5197172;28;20627;-60
2021/05/08 05:38:34;;;;;;;6.70;6.20;;;6.40;99.90;;;7.76;62.67;98182.31;5194751;28;20218;-60
2021/05/08 05:41:06;;;;;;;6.67;6.17;;;6.10;99.90;;;7.92;62.88;98179.22;5200129;28;20202;-60
2021/05/08 05:43:38;;;;;;;7.33;6.83;;;6.20;99.90;;;7.92;61.67;98184.31;5184369;28;20206;-60
2021/05/08 05:46:10;;;;;;;6.90;6.40;;;6.30;99.90;;;8.21;62.00;98178.78;5192360;28;20306;-58
2021/05/08 05:48:43;;;;;;;6.87;6.37;;;6.50;99.90;;;8.54;60.39;98180.28;5197507;28;20261;-59
2021/05/08 05:51:15;;;;;;;7.00;6.50;;;6.90;99.90;;;8.81;58.86;98180.44;5191470;28;20212;-61
2021/05/08 05:53:55;;;;;;;6.43;5.93;;;6.80;99.90;;;9.17;58.54;98188.84;5191435;28;20226;-61
2021/05/08 05:56:28;;;;;;;7.87;7.20;;;7.20;99.90;;;9.32;58.38;98176.22;5200353;28;20292;-61
2021/05/08 05:59:01;;;;;;;6.73;6.23;;;7.60;99.90;;;9.87;58.02;98188.41;5192530;28;20221;-61
2021/05/08 06:01:34;;;;;;;6.80;6.03;;;7.80;99.90;;;10.38;55.45;98184.88;5200353;28;20233;-60
2021/05/08 06:04:06;;;;;;;6.87;6.37;;;8.40;99.90;;;10.67;55.54;98188.38;5202512;28;20194;-61
2021/05/08 06:06:38;;;;;;;6.40;5.88;;;8.40;99.90;;;11.19;54.58;98183.88;5197480;28;20210;-60
2021/05/08 06:09:10;;;;;;;7.35;6.85;;;8.80;99.90;;;11.35;53.26;98184.78;5196287;28;20233;-61
2021/05/08 06:11:43;;;;;;;7.40;6.80;;;8.90;99.90;;;11.77;52.54;98170.16;5199943;28;20208;-61
2021/05/08 06:14:18;;;;;;;7.28;6.78;;;9.20;99.90;;;12.51;50.68;98165.81;5197514;28;20199;-62
2021/05/08 06:16:51;;;;;;;7.18;6.63;;;9.70;99.90;;;12.97;48.89;98167.38;5191646;28;20657;-62
2021/05/08 06:19:24;;;;;;;6.47;5.97;;;10.30;99.90;;;13.06;49.13;98148.22;5200164;28;20300;-62
2021/05/08 06:21:56;;;;;;;7.22;6.70;;;10.40;99.90;;;13.22;48.53;98149.91;5207688;28;20205;-61
2021/05/08 06:24:28;;;;;;;7.00;6.50;;;10.60;99.90;;;13.47;47.87;98146.03;5199348;28;20283;-61
2021/05/08 06:27:01;;;;;;;7.05;6.35;;;10.90;99.90;;;13.73;46.56;98142.16;5199064;28;20761;-62
2021/05/08 06:29:33;;;;;;;6.80;6.30;;;11.10;99.90;;;14.12;45.96;98138.09;5194710;28;20317;-60
2021/05/08 06:32:05;;;;;;;6.57;6.15;;;11.50;99.90;;;14.56;47.27;98143.56;5199629;28;20201;-59
2021/05/08 06:34:38;;;;;;;6.65;6.15;;;11.90;99.90;;;14.95;46.04;98153.91;5203986;28;20202;-62
2021/05/08 06:37:10;;;;;;;6.63;6.13;;;12.50;99.50;;;15.49;43.73;98152.00;5204905;28;20590;-61
2021/05/08 06:39:42;;;;;;;6.32;5.93;;;13.30;97.50;;;15.73;44.24;98145.28;5202644;28;20214;-61
2021/05/08 06:42:15;;;;;;;6.00;5.60;;;13.40;97.50;;;15.43;44.34;98150.03;5200887;28;20194;-61
2021/05/08 06:44:47;;;;;;;6.95;6.40;;;13.40;96.90;;;16.02;43.63;98144.72;5200394;28;20190;-62
2021/05/08 06:47:19;;;;;;;7.00;6.38;;;13.40;97.20;;;16.53;42.47;98145.88;5199597;28;20683;-62
2021/05/08 06:49:52;;;;;;;7.65;7.05;;;13.90;96.40;;;16.64;42.58;98146.31;5203300;28;20222;-62
2021/05/08 06:52:24;;;;;;;7.20;6.60;;;14.10;96.40;;;17.04;42.63;98151.28;5201414;28;20229;-62
2021/05/08 06:54:56;;;;;;;6.40;5.90;;;14.50;96.30;;;17.16;41.35;98148.25;5194894;28;20289;-63
2021/05/08 06:57:29;;;;;;;6.05;5.55;;;14.50;95.40;;;17.65;40.07;98143.91;5191579;28;20213;-62
2021/05/08 07:00:02;;;;;;;6.47;5.97;;;14.70;94.90;;;17.73;40.49;98143.34;5188027;28;20599;-62
2021/05/08 07:02:34;;;;;;;6.03;5.60;;;14.70;94.80;;;17.64;39.83;98136.97;5201964;28;20584;-63
2021/05/08 07:05:08;;;;;;;5.53;5.13;;;14.70;94.70;;;17.90;40.13;98141.34;5201994;28;20202;-64
2021/05/08 07:07:40;;;;;;;5.53;5.03;;;15.10;94.40;;;17.80;39.21;98136.72;5193428;28;20197;-61
2021/05/08 07:10:12;;;;;;;5.10;4.70;;;15.50;93.00;;;18.04;37.63;98127.97;5188922;28;20583;-62
2021/05/08 07:12:45;;;;;;;5.13;4.72;;;15.50;91.60;;;18.12;38.91;98129.09;5198158;28;20662;-62
2021/05/08 07:15:17;;;;;;;4.15;3.85;;;15.90;92.20;;;18.43;36.48;98124.06;5198453;28;20206;-62
2021/05/08 07:18:01;;;;;;;5.25;4.03;;;16.40;90.10;;;18.75;34.63;98113.81;5191888;28;20209;-62
2021/05/08 07:20:36;;;;;;;4.70;4.30;;;16.70;87.00;;;19.46;34.62;98113.13;5192032;28;20197;-61
2021/05/08 07:23:09;;;;;;;4.32;3.97;;;17.10;86.80;;;19.29;33.92;98108.41;5202555;28;20205;-62
2021/05/08 07:25:41;;;;;;;4.40;4.00;;;17.20;84.70;;;20.01;32.83;98104.16;5198728;28;20253;-62
2021/05/08 07:28:16;;;;;;;3.50;3.30;;;17.20;84.00;;;20.34;32.71;98104.06;5192899;28;20230;-62
2021/05/08 07:30:50;;;;;;;3.58;3.30;;;17.40;84.10;;;20.62;30.99;98105.56;5196475;28;20232;-61
2021/05/08 07:33:23;;;;;;;3.58;3.28;;;17.90;80.70;;;20.58;29.14;98098.56;5193197;28;20202;-61
2021/05/08 07:35:55;;;;;;;3.35;3.05;;;17.80;77.00;;;21.03;29.97;98097.75;5200134;28;21850;-61
2021/05/08 07:38:27;;;;;;;3.45;3.15;;;18.10;78.80;;;21.46;28.92;98098.59;5196652;28;20654;-62
2021/05/08 07:41:00;;;;;;;4.55;3.05;;;18.70;76.00;;;21.44;28.21;98110.69;5199180;28;20930;-62
2021/05/08 07:43:32;;;;;;;3.38;3.03;;;18.90;74.50;;;21.80;28.60;98089.63;5195262;28;20230;-62
2021/05/08 07:46:05;;;;;;;3.65;3.35;;;18.90;74.80;;;21.93;26.80;98090.69;5186426;28;20297;-61
2021/05/08 07:48:37;;;;;;;3.25;3.03;;;19.40;70.90;;;21.55;27.35;98093.53;5188767;28;20237;-62
2021/05/08 07:51:09;;;;;;;3.00;2.80;;;19.10;70.70;;;21.34;27.45;98098.31;5187963;28;20234;-62
2021/05/08 07:53:41;;;;;;;3.40;3.10;;;18.90;70.70;;;21.39;27.87;98096.72;5193019;28;20680;-62
2021/05/08 07:56:13;;;;;;;3.50;3.20;;;19.20;71.40;;;20.86;29.33;98088.72;5194703;28;20273;-62
2021/05/08 07:58:46;;;;;;;3.40;3.10;;;18.70;73.00;;;20.52;28.66;98090.63;5194006;28;21521;-61
2021/05/08 08:01:18;;;;;;;3.42;3.10;;;18.70;71.40;;;20.10;30.29;98096.59;5192548;28;20359;-62
2021/05/08 08:03:51;;;;;;;3.45;3.20;;;18.60;72.80;;;19.89;29.56;98099.56;5201061;28;20462;-61
2021/05/08 08:06:23;;;;;;;4.35;3.22;;;18.70;70.60;;;19.36;31.08;98099.06;5190577;28;20198;-61
2021/05/08 08:08:55;;;;;;;4.28;3.20;;;18.10;72.80;;;19.44;30.70;98099.25;5192015;28;20237;-62
2021/05/08 08:11:27;;;;;;;3.63;3.22;;;18.20;72.60;;;19.46;31.17;98094.97;5195720;28;20293;-60
2021/05/08 08:14:00;;;;;;;3.58;3.28;;;18.30;72.80;;;19.56;30.51;98094.38;5194733;28;20245;-61
2021/05/08 08:16:33;;;;;;;3.55;3.25;;;18.60;70.80;;;19.40;30.24;98093.13;5190329;28;20590;-62
2021/05/08 08:19:05;;;;;;;3.05;2.80;;;18.60;70.40;;;19.22;30.52;98096.09;5185367;28;20210;-61
2021/05/08 08:21:37;;;;;;;3.58;3.20;;;18.60;69.50;;;18.85;30.51;98099.38;5185022;28;20198;-62
2021/05/08 08:24:10;;;;;;;3.13;2.92;;;18.20;69.40;;;18.88;32.08;98100.34;5189093;28;20233;-62
2021/05/08 08:26:42;;;;;;;3.00;2.80;;;18.00;73.10;;;19.07;30.98;98098.28;5192082;28;20234;-62
2021/05/08 08:29:15;;;;;;;2.83;2.63;;;18.20;70.30;;;19.25;31.43;98103.06;5191377;28;20321;-61
2021/05/08 08:31:47;;;;;;;3.15;2.85;;;18.40;71.00;;;19.20;31.21;98100.38;5188268;28;20669;-61
2021/05/08 08:34:20;;;;;;;3.05;2.85;;;18.30;70.80;;;19.51;29.82;98098.56;5191116;28;20632;-61
2021/05/08 08:36:52;;;;;;;3.50;3.20;;;18.40;69.70;;;19.48;30.20;98098.50;5186289;28;20221;-62
2021/05/08 08:39:24;;;;;;;2.92;2.72;;;18.70;69.10;;;19.43;30.89;98092.31;5197996;28;20574;-62
2021/05/08 08:41:56;;;;;;;2.95;2.75;;;18.50;70.80;;;19.32;32.18;98090.31;5197943;28;20210;-62
2021/05/08 08:44:29;;;;;;;3.88;2.95;;;18.40;72.50;;;19.43;30.93;98097.50;5188604;28;20211;-61
2021/05/08 08:47:01;;;;;;;2.83;2.63;;;18.70;69.90;;;19.61;30.70;98097.09;5199939;28;20292;-62
2021/05/08 08:49:35;;;;;;;3.17;2.72;;;18.80;69.40;;;19.80;29.54;98100.22;5204340;28;20221;-61
2021/05/08 08:52:08;;;;;;;3.00;2.80;;;19.00;67.50;;;19.78;29.41;98101.91;5202029;28;20208;-62
2021/05/08 08:54:41;;;;;;;2.53;2.40;;;18.70;67.10;;;19.65;29.56;98094.63;5183768;28;20264;-62
2021/05/08 08:57:13;;;;;;;2.75;2.55;;;18.50;68.10;;;19.73;28.75;98095.72;5185260;28;20225;-62
2021/05/08 08:59:47;;;;;;;5.20;2.70;;;18.60;66.80;;;19.72;29.51;98081.00;5194938;28;20253;-62
2021/05/08 09:02:20;;;;;;;2.90;2.33;;;18.50;67.90;;;19.74;29.49;98081.94;5201654;28;20216;-62
2021/05/08 09:04:53;;;;;;;3.03;2.72;;;18.20;68.40;;;19.50;29.01;98073.50;5197079;28;20237;-62
2021/05/08 09:07:28;;;;;;;2.78;2.58;;;18.50;66.80;;;19.53;29.29;98084.81;5204408;28;20308;-62
2021/05/08 09:10:01;;;;;;;3.08;2.72;;;18.60;67.20;;;19.33;30.91;98084.28;5192890;28;20664;-62
2021/05/08 09:12:45;;;;;;;2.80;2.60;;;18.30;70.30;;;19.35;31.36;98086.94;5200739;28;20225;-61
2021/05/08 09:15:34;;;;;;;2.83;2.40;;;18.20;71.00;;;19.28;31.73;98074.63;5197378;28;20359;-64
2021/05/08 09:18:10;;;;;;;3.28;2.95;;;18.10;71.80;;;19.56;30.36;98074.50;5183657;28;20230;-65
2021/05/08 09:20:45;;;;;;;3.20;3.00;;;18.50;68.90;;;19.39;32.02;98080.97;5184730;28;20661;-65
2021/05/08 09:23:21;;;;;;;3.25;2.95;;;18.20;72.10;;;19.12;31.29;98065.59;5184417;28;20198;-65
2021/05/08 09:25:59;;;;;;;3.80;3.22;;;17.90;71.10;;;18.75;32.66;98062.00;5183617;28;20690;-63
2021/05/08 09:28:33;;;;;;;2.65;2.45;;;17.60;72.90;;;18.64;33.04;98068.56;5190595;28;20272;-62
2021/05/08 09:31:13;;;;;;;2.88;2.58;;;17.50;72.90;;;18.87;32.42;98069.22;5197685;28;20244;-62
2021/05/08 09:33:51;;;;;;;4.40;3.58;;;17.50;72.80;;;18.96;32.30;98063.44;5193416;28;20272;-62
2021/05/08 09:36:23;;;;;;;2.80;2.60;;;17.60;72.60;;;19.11;31.14;98056.06;5201549;28;20713;-63
2021/05/08 09:38:55;;;;;;;2.53;2.33;;;17.80;71.10;;;18.78;32.40;98064.69;5191104;28;20676;-62
2021/05/08 09:41:46;;;;;;;2.30;2.10;;;17.70;73.30;;;18.87;31.60;98048.50;5188539;28;20202;-63
2021/05/08 09:44:18;;;;;;;2.55;2.10;;;17.60;71.00;;;19.01;31.63;98046.28;5198027;28;20572;-62
2021/05/08 09:46:52;;;;;;;3.92;2.65;;;17.80;71.30;;;19.05;30.93;98041.22;5203230;28;20292;-62
2021/05/08 09:49:24;;;;;;;2.30;2.10;;;17.80;69.90;;;18.94;31.60;98039.19;5193265;28;20630;-63
2021/05/08 09:51:59;;;;;;;2.70;2.50;;;17.70;70.80;;;19.20;30.49;98039.88;5191240;28;20292;-62
2021/05/08 09:54:31;;;;;;;3.10;2.45;;;17.90;69.60;;;19.17;30.62;98024.25;5200248;28;20202;-63
2021/05/08 09:57:19;;;;;;;3.17;2.40;;;17.70;69.90;;;18.97;30.44;98019.44;5190938;28;20735;-63
2021/05/08 09:59:51;;;;;;;2.30;2.10;;;17.70;68.20;;;19.08;30.22;98017.97;5201709;28;20454;-62
2021/05/08 10:02:24;;;;;;;2.28;2.00;;;17.70;68.50;;;19.12;31.35;98011.19;5202972;28;20285;-60
2021/05/08 10:05:16;;;;;;;2.60;2.40;;;17.80;70.90;;;19.27;31.02;98011.56;5196308;28;20207;-63
2021/05/08 10:07:48;;;;;;;3.10;2.65;;;17.80;69.80;;;19.33;30.82;98014.31;5184258;28;20230;-63
2021/05/08 10:10:20;;;;;;;2.63;2.10;;;17.80;70.30;;;19.40;31.56;98011.84;5188998;28;20229;-61
2021/05/08 10:12:52;;;;;;;2.58;2.38;;;17.90;71.70;;;19.65;29.20;98011.66;5185723;28;20277;-62
2021/05/08 10:15:25;;;;;;;4.75;2.75;;;18.30;67.00;;;19.56;29.55;98006.22;5203304;28;20688;-61
2021/05/08 10:17:58;;;;;;;2.30;2.05;;;18.30;67.30;;;19.72;29.09;98010.97;5199782;28;20225;-63
2021/05/08 10:20:30;;;;;;;2.30;2.20;;;18.50;66.60;;;19.40;30.07;98006.69;5198825;28;20218;-63
2021/05/08 10:23:08;;;;;;;3.65;2.70;;;18.20;67.80;;;19.40;29.58;98009.25;5193143;28;20195;-62
2021/05/08 10:25:42;;;;;;;2.63;2.42;;;18.10;67.50;;;19.17;29.62;98011.28;5191959;28;20278;-62
2021/05/08 10:28:14;;;;;;;2.58;2.38;;;18.10;66.90;;;19.10;30.24;98002.47;5196253;28;20310;-63
2021/05/08 10:30:47;;;;;;;2.63;2.33;;;18.00;67.80;;;19.17;30.59;98001.78;5203000;28;20761;-62
2021/05/08 10:33:22;;;;;;;2.60;2.40;;;18.10;67.60;;;19.17;29.99;97991.41;5188405;28;20206;-63
2021/05/08 10:35:54;;;;;;;2.35;2.03;;;18.30;67.00;;;18.93;31.27;97996.88;5185113;28;20202;-62
2021/05/08 10:38:30;;;;;;;2.97;2.30;;;18.10;68.20;;;18.95;30.79;97986.56;5198750;28;20243;-63
2021/05/08 10:41:05;;;;;;;2.42;2.22;;;18.00;68.30;;;19.00;30.93;97984.94;5193127;28;20200;-63
2021/05/08 10:43:43;;;;;;;2.33;2.13;;;18.10;68.10;;;18.92;33.62;97981.31;5203181;28;20300;-63
2021/05/08 10:46:17;;;;;;;2.60;2.40;;;18.10;72.90;;;19.09;31.22;97983.47;5182512;28;20238;-63
2021/05/08 10:49:17;;;;;;;2.50;2.30;;;18.20;68.90;;;19.26;31.47;97975.25;5184962;28;20224;-62
2021/05/08 10:52:01;;;;;;;2.78;2.33;;;18.40;69.40;;;19.03;31.23;97977.25;5201836;28;20222;-63
2021/05/08 10:54:54;;;;;;;2.33;2.13;;;18.20;67.60;;;19.11;30.24;97970.53;5190163;28;20277;-61